sensor_id;sensor_type;location;lat;lon;timestamp;P1;durP1;ratioP1;P2;durP2;ratioP2
789;SDS011;378;48.844;9.156;2023-10-09T00:01:01;20.42;;;4.68;;
789;SDS011;378;48.844;9.156;2023-10-09T00:03:31;16.67;;;4.53;;
789;SDS011;378;48.844;9.156;2023-10-09T00:06:01;12.77;;;3.83;;
789;SDS011;378;48.844;9.156;2023-10-09T00:08:29;18.70;;;4.72;;
789;SDS011;378;48.844;9.156;2023-10-09T00:10:57;16.08;;;4.07;;
789;SDS011;378;48.844;9.156;2023-10-09T00:13:38;22.95;;;4.63;;
789;SDS011;378;48.844;9.156;2023-10-09T00:16:14;20.80;;;5.03;;
789;SDS011;378;48.844;9.156;2023-10-09T00:18:50;18.38;;;4.38;;
789;SDS011;378;48.844;9.156;2023-10-09T00:21:18;12.82;;;4.40;;
789;SDS011;378;48.844;9.156;2023-10-09T00:23:47;13.35;;;4.15;;
789;SDS011;378;48.844;9.156;2023-10-09T00:26:20;17.23;;;4.57;;
789;SDS011;378;48.844;9.156;2023-10-09T00:28:48;13.35;;;4.15;;
789;SDS011;378;48.844;9.156;2023-10-09T00:31:16;15.48;;;4.13;;
789;SDS011;378;48.844;9.156;2023-10-09T00:33:53;18.20;;;4.25;;
789;SDS011;378;48.844;9.156;2023-10-09T00:36:20;17.73;;;3.83;;
789;SDS011;378;48.844;9.156;2023-10-09T00:38:53;17.83;;;4.25;;
789;SDS011;378;48.844;9.156;2023-10-09T00:41:22;12.18;;;4.00;;
789;SDS011;378;48.844;9.156;2023-10-09T00:43:51;20.98;;;4.60;;
789;SDS011;378;48.844;9.156;2023-10-09T00:46:20;15.88;;;4.55;;
789;SDS011;378;48.844;9.156;2023-10-09T00:48:53;17.75;;;4.78;;
789;SDS011;378;48.844;9.156;2023-10-09T00:51:23;16.83;;;4.30;;
789;SDS011;378;48.844;9.156;2023-10-09T00:53:51;13.23;;;4.43;;
789;SDS011;378;48.844;9.156;2023-10-09T00:56:23;22.60;;;4.93;;
789;SDS011;378;48.844;9.156;2023-10-09T00:59:03;16.20;;;4.20;;
789;SDS011;378;48.844;9.156;2023-10-09T01:01:33;21.42;;;5.00;;
789;SDS011;378;48.844;9.156;2023-10-09T01:04:05;15.45;;;4.35;;
789;SDS011;378;48.844;9.156;2023-10-09T01:06:35;14.32;;;4.00;;
789;SDS011;378;48.844;9.156;2023-10-09T01:09:08;12.13;;;4.13;;
789;SDS011;378;48.844;9.156;2023-10-09T01:11:36;23.02;;;4.22;;
789;SDS011;378;48.844;9.156;2023-10-09T01:14:13;13.68;;;4.43;;
789;SDS011;378;48.844;9.156;2023-10-09T01:16:40;20.63;;;4.82;;
789;SDS011;378;48.844;9.156;2023-10-09T01:19:09;15.63;;;4.45;;
789;SDS011;378;48.844;9.156;2023-10-09T01:21:48;16.70;;;4.60;;
789;SDS011;378;48.844;9.156;2023-10-09T01:24:16;15.18;;;4.38;;
789;SDS011;378;48.844;9.156;2023-10-09T01:26:44;11.38;;;3.70;;
789;SDS011;378;48.844;9.156;2023-10-09T01:29:13;11.52;;;3.58;;
789;SDS011;378;48.844;9.156;2023-10-09T01:31:42;16.88;;;4.60;;
789;SDS011;378;48.844;9.156;2023-10-09T01:34:27;15.45;;;4.38;;
789;SDS011;378;48.844;9.156;2023-10-09T01:37:07;21.98;;;4.80;;
789;SDS011;378;48.844;9.156;2023-10-09T01:39:38;20.77;;;5.03;;
789;SDS011;378;48.844;9.156;2023-10-09T01:42:07;17.88;;;4.30;;
789;SDS011;378;48.844;9.156;2023-10-09T01:44:35;12.32;;;4.32;;
789;SDS011;378;48.844;9.156;2023-10-09T01:47:08;15.90;;;4.72;;
789;SDS011;378;48.844;9.156;2023-10-09T01:49:39;16.85;;;4.18;;
789;SDS011;378;48.844;9.156;2023-10-09T01:52:08;18.40;;;4.60;;
789;SDS011;378;48.844;9.156;2023-10-09T01:54:36;23.35;;;4.70;;
789;SDS011;378;48.844;9.156;2023-10-09T01:57:04;13.50;;;4.25;;
789;SDS011;378;48.844;9.156;2023-10-09T01:59:34;13.23;;;4.40;;
789;SDS011;378;48.844;9.156;2023-10-09T02:02:03;27.88;;;4.85;;
789;SDS011;378;48.844;9.156;2023-10-09T02:04:39;18.23;;;4.40;;
789;SDS011;378;48.844;9.156;2023-10-09T02:07:06;22.05;;;4.18;;
789;SDS011;378;48.844;9.156;2023-10-09T02:09:34;15.30;;;3.90;;
789;SDS011;378;48.844;9.156;2023-10-09T02:12:11;16.10;;;4.72;;
789;SDS011;378;48.844;9.156;2023-10-09T02:14:38;17.75;;;4.63;;
789;SDS011;378;48.844;9.156;2023-10-09T02:17:07;12.60;;;4.13;;
789;SDS011;378;48.844;9.156;2023-10-09T02:19:42;16.23;;;3.95;;
789;SDS011;378;48.844;9.156;2023-10-09T02:22:13;18.10;;;4.55;;
789;SDS011;378;48.844;9.156;2023-10-09T02:24:41;13.45;;;4.65;;
789;SDS011;378;48.844;9.156;2023-10-09T02:27:17;17.25;;;4.95;;
789;SDS011;378;48.844;9.156;2023-10-09T02:30:07;21.60;;;5.40;;
789;SDS011;378;48.844;9.156;2023-10-09T02:32:41;16.73;;;4.28;;
789;SDS011;378;48.844;9.156;2023-10-09T02:35:09;17.60;;;4.32;;
789;SDS011;378;48.844;9.156;2023-10-09T02:37:45;18.80;;;4.65;;
789;SDS011;378;48.844;9.156;2023-10-09T02:40:13;25.27;;;4.60;;
789;SDS011;378;48.844;9.156;2023-10-09T02:42:50;21.10;;;4.18;;
789;SDS011;378;48.844;9.156;2023-10-09T02:45:17;16.23;;;4.50;;
789;SDS011;378;48.844;9.156;2023-10-09T02:47:44;15.77;;;4.70;;
789;SDS011;378;48.844;9.156;2023-10-09T02:50:14;14.82;;;4.80;;
789;SDS011;378;48.844;9.156;2023-10-09T02:52:46;18.20;;;4.53;;
789;SDS011;378;48.844;9.156;2023-10-09T02:55:17;15.60;;;4.47;;
789;SDS011;378;48.844;9.156;2023-10-09T02:57:52;18.58;;;4.53;;
789;SDS011;378;48.844;9.156;2023-10-09T03:00:30;18.95;;;4.20;;
789;SDS011;378;48.844;9.156;2023-10-09T03:02:57;24.08;;;5.97;;
789;SDS011;378;48.844;9.156;2023-10-09T03:05:24;12.35;;;4.28;;
789;SDS011;378;48.844;9.156;2023-10-09T03:07:53;17.15;;;4.30;;
789;SDS011;378;48.844;9.156;2023-10-09T03:10:21;16.83;;;4.10;;
789;SDS011;378;48.844;9.156;2023-10-09T03:12:51;12.32;;;3.80;;
789;SDS011;378;48.844;9.156;2023-10-09T03:15:19;27.67;;;5.07;;
789;SDS011;378;48.844;9.156;2023-10-09T03:17:46;12.73;;;4.57;;
789;SDS011;378;48.844;9.156;2023-10-09T03:20:14;22.23;;;4.50;;
789;SDS011;378;48.844;9.156;2023-10-09T03:22:42;15.80;;;4.78;;
789;SDS011;378;48.844;9.156;2023-10-09T03:25:11;17.25;;;4.00;;
789;SDS011;378;48.844;9.156;2023-10-09T03:27:42;13.77;;;3.92;;
789;SDS011;378;48.844;9.156;2023-10-09T03:30:13;15.27;;;3.90;;
789;SDS011;378;48.844;9.156;2023-10-09T03:32:42;13.85;;;4.80;;
789;SDS011;378;48.844;9.156;2023-10-09T03:35:10;12.30;;;4.18;;
789;SDS011;378;48.844;9.156;2023-10-09T03:37:41;13.38;;;3.70;;
789;SDS011;378;48.844;9.156;2023-10-09T03:40:09;14.73;;;3.92;;
789;SDS011;378;48.844;9.156;2023-10-09T03:42:42;14.20;;;3.88;;
789;SDS011;378;48.844;9.156;2023-10-09T03:45:10;20.13;;;4.13;;
789;SDS011;378;48.844;9.156;2023-10-09T03:47:50;24.80;;;4.85;;
789;SDS011;378;48.844;9.156;2023-10-09T03:50:22;13.88;;;4.57;;
789;SDS011;378;48.844;9.156;2023-10-09T03:52:55;17.83;;;4.28;;
789;SDS011;378;48.844;9.156;2023-10-09T03:55:22;19.73;;;4.30;;
789;SDS011;378;48.844;9.156;2023-10-09T03:57:52;20.52;;;4.25;;
789;SDS011;378;48.844;9.156;2023-10-09T04:00:21;14.30;;;4.18;;
789;SDS011;378;48.844;9.156;2023-10-09T04:02:55;15.98;;;4.28;;
789;SDS011;378;48.844;9.156;2023-10-09T04:05:23;20.70;;;4.50;;
789;SDS011;378;48.844;9.156;2023-10-09T04:07:50;12.70;;;4.25;;
789;SDS011;378;48.844;9.156;2023-10-09T04:10:19;16.40;;;5.00;;
789;SDS011;378;48.844;9.156;2023-10-09T04:13:03;14.98;;;4.50;;
789;SDS011;378;48.844;9.156;2023-10-09T04:15:34;11.77;;;3.90;;
789;SDS011;378;48.844;9.156;2023-10-09T04:18:03;18.42;;;4.50;;
789;SDS011;378;48.844;9.156;2023-10-09T04:20:31;19.23;;;5.03;;
789;SDS011;378;48.844;9.156;2023-10-09T04:23:33;17.25;;;4.30;;
789;SDS011;378;48.844;9.156;2023-10-09T04:26:00;18.15;;;4.43;;
789;SDS011;378;48.844;9.156;2023-10-09T04:28:41;16.30;;;4.43;;
789;SDS011;378;48.844;9.156;2023-10-09T04:31:16;19.40;;;4.32;;
789;SDS011;378;48.844;9.156;2023-10-09T04:33:46;22.33;;;4.82;;
789;SDS011;378;48.844;9.156;2023-10-09T04:36:19;17.55;;;4.55;;
789;SDS011;378;48.844;9.156;2023-10-09T04:38:52;13.30;;;4.03;;
789;SDS011;378;48.844;9.156;2023-10-09T04:41:40;19.73;;;4.53;;
789;SDS011;378;48.844;9.156;2023-10-09T04:44:17;19.42;;;4.65;;
789;SDS011;378;48.844;9.156;2023-10-09T04:46:44;16.13;;;4.18;;
789;SDS011;378;48.844;9.156;2023-10-09T04:49:32;17.77;;;4.43;;
789;SDS011;378;48.844;9.156;2023-10-09T04:52:14;15.95;;;4.72;;
789;SDS011;378;48.844;9.156;2023-10-09T04:54:45;18.00;;;4.88;;
789;SDS011;378;48.844;9.156;2023-10-09T04:57:26;21.13;;;5.10;;
789;SDS011;378;48.844;9.156;2023-10-09T04:59:54;14.77;;;4.38;;
789;SDS011;378;48.844;9.156;2023-10-09T05:02:23;18.13;;;5.32;;
789;SDS011;378;48.844;9.156;2023-10-09T05:05:02;16.98;;;5.20;;
789;SDS011;378;48.844;9.156;2023-10-09T05:07:42;13.90;;;4.93;;
789;SDS011;378;48.844;9.156;2023-10-09T05:10:20;17.98;;;4.78;;
789;SDS011;378;48.844;9.156;2023-10-09T05:12:50;16.15;;;4.30;;
789;SDS011;378;48.844;9.156;2023-10-09T05:15:22;19.65;;;4.90;;
789;SDS011;378;48.844;9.156;2023-10-09T05:17:53;17.75;;;4.68;;
789;SDS011;378;48.844;9.156;2023-10-09T05:20:23;17.73;;;5.20;;
789;SDS011;378;48.844;9.156;2023-10-09T05:23:06;19.00;;;5.10;;
789;SDS011;378;48.844;9.156;2023-10-09T05:25:52;12.70;;;4.13;;
789;SDS011;378;48.844;9.156;2023-10-09T05:28:23;17.10;;;4.55;;
789;SDS011;378;48.844;9.156;2023-10-09T05:41:56;20.65;;;5.30;;
789;SDS011;378;48.844;9.156;2023-10-09T05:44:33;20.38;;;4.68;;
789;SDS011;378;48.844;9.156;2023-10-09T05:47:17;17.35;;;4.90;;
789;SDS011;378;48.844;9.156;2023-10-09T05:50:00;25.27;;;6.13;;
789;SDS011;378;48.844;9.156;2023-10-09T05:52:51;15.70;;;5.15;;
789;SDS011;378;48.844;9.156;2023-10-09T05:55:30;16.98;;;5.30;;
789;SDS011;378;48.844;9.156;2023-10-09T05:58:12;17.58;;;5.20;;
789;SDS011;378;48.844;9.156;2023-10-09T06:00:57;15.02;;;4.35;;
789;SDS011;378;48.844;9.156;2023-10-09T06:03:42;15.75;;;4.57;;
789;SDS011;378;48.844;9.156;2023-10-09T06:06:19;21.15;;;4.82;;
789;SDS011;378;48.844;9.156;2023-10-09T06:08:59;19.92;;;5.03;;
789;SDS011;378;48.844;9.156;2023-10-09T06:11:53;19.00;;;5.00;;
789;SDS011;378;48.844;9.156;2023-10-09T06:14:38;22.02;;;5.85;;
789;SDS011;378;48.844;9.156;2023-10-09T06:17:30;21.65;;;4.60;;
789;SDS011;378;48.844;9.156;2023-10-09T06:20:08;19.73;;;4.80;;
789;SDS011;378;48.844;9.156;2023-10-09T06:23:01;21.60;;;4.88;;
789;SDS011;378;48.844;9.156;2023-10-09T06:25:41;13.75;;;4.57;;
789;SDS011;378;48.844;9.156;2023-10-09T06:28:16;18.08;;;5.00;;
789;SDS011;378;48.844;9.156;2023-10-09T06:30:59;13.95;;;4.40;;
789;SDS011;378;48.844;9.156;2023-10-09T06:33:46;19.60;;;4.85;;
789;SDS011;378;48.844;9.156;2023-10-09T06:36:33;19.85;;;5.15;;
789;SDS011;378;48.844;9.156;2023-10-09T06:38:59;17.92;;;4.93;;
789;SDS011;378;48.844;9.156;2023-10-09T06:41:55;24.60;;;5.55;;
789;SDS011;378;48.844;9.156;2023-10-09T06:44:35;18.77;;;5.60;;
789;SDS011;378;48.844;9.156;2023-10-09T06:47:17;20.02;;;4.55;;
789;SDS011;378;48.844;9.156;2023-10-09T06:49:44;17.58;;;4.82;;
789;SDS011;378;48.844;9.156;2023-10-09T06:52:31;17.45;;;4.68;;
789;SDS011;378;48.844;9.156;2023-10-09T06:55:12;17.88;;;4.70;;
789;SDS011;378;48.844;9.156;2023-10-09T06:57:44;15.95;;;4.90;;
789;SDS011;378;48.844;9.156;2023-10-09T07:00:14;19.23;;;4.90;;
789;SDS011;378;48.844;9.156;2023-10-09T07:03:00;19.80;;;5.57;;
789;SDS011;378;48.844;9.156;2023-10-09T07:05:36;20.13;;;4.75;;
789;SDS011;378;48.844;9.156;2023-10-09T07:08:23;18.67;;;5.13;;
789;SDS011;378;48.844;9.156;2023-10-09T07:11:02;17.17;;;5.07;;
789;SDS011;378;48.844;9.156;2023-10-09T07:13:43;15.02;;;4.65;;
789;SDS011;378;48.844;9.156;2023-10-09T07:16:19;15.10;;;4.43;;
789;SDS011;378;48.844;9.156;2023-10-09T07:18:50;13.90;;;4.18;;
789;SDS011;378;48.844;9.156;2023-10-09T07:21:19;13.50;;;4.13;;
789;SDS011;378;48.844;9.156;2023-10-09T07:23:53;15.40;;;4.90;;
789;SDS011;378;48.844;9.156;2023-10-09T07:26:22;30.70;;;5.78;;
789;SDS011;378;48.844;9.156;2023-10-09T07:29:01;19.45;;;5.07;;
789;SDS011;378;48.844;9.156;2023-10-09T07:31:41;23.52;;;5.43;;
789;SDS011;378;48.844;9.156;2023-10-09T07:34:12;15.98;;;4.97;;
789;SDS011;378;48.844;9.156;2023-10-09T07:36:57;17.63;;;4.72;;
789;SDS011;378;48.844;9.156;2023-10-09T07:39:28;17.25;;;4.55;;
789;SDS011;378;48.844;9.156;2023-10-09T07:42:01;18.70;;;4.50;;
789;SDS011;378;48.844;9.156;2023-10-09T07:44:44;18.73;;;4.72;;
789;SDS011;378;48.844;9.156;2023-10-09T07:47:18;23.02;;;4.88;;
789;SDS011;378;48.844;9.156;2023-10-09T07:49:49;17.48;;;4.53;;
789;SDS011;378;48.844;9.156;2023-10-09T07:52:20;19.38;;;5.05;;
789;SDS011;378;48.844;9.156;2023-10-09T07:54:48;17.35;;;4.85;;
789;SDS011;378;48.844;9.156;2023-10-09T07:57:28;14.32;;;5.05;;
789;SDS011;378;48.844;9.156;2023-10-09T08:00:04;15.45;;;4.75;;
789;SDS011;378;48.844;9.156;2023-10-09T08:02:58;22.70;;;6.03;;
789;SDS011;378;48.844;9.156;2023-10-09T08:05:28;15.70;;;4.72;;
789;SDS011;378;48.844;9.156;2023-10-09T08:07:59;15.38;;;4.70;;
789;SDS011;378;48.844;9.156;2023-10-09T08:21:23;18.45;;;4.75;;
789;SDS011;378;48.844;9.156;2023-10-09T08:24:09;19.33;;;4.80;;
789;SDS011;378;48.844;9.156;2023-10-09T08:26:59;19.10;;;5.22;;
789;SDS011;378;48.844;9.156;2023-10-09T08:29:52;17.45;;;5.18;;
789;SDS011;378;48.844;9.156;2023-10-09T08:32:46;15.68;;;4.53;;
789;SDS011;378;48.844;9.156;2023-10-09T08:38:51;14.70;;;4.35;;
789;SDS011;378;48.844;9.156;2023-10-09T08:41:26;17.30;;;5.05;;
789;SDS011;378;48.844;9.156;2023-10-09T08:44:23;15.35;;;4.63;;
789;SDS011;378;48.844;9.156;2023-10-09T08:47:39;27.27;;;6.53;;
789;SDS011;378;48.844;9.156;2023-10-09T08:50:33;26.70;;;5.05;;
789;SDS011;378;48.844;9.156;2023-10-09T08:53:22;20.65;;;5.32;;
789;SDS011;378;48.844;9.156;2023-10-09T08:59:30;17.30;;;4.75;;
789;SDS011;378;48.844;9.156;2023-10-09T09:01:58;16.95;;;4.60;;
789;SDS011;378;48.844;9.156;2023-10-09T09:04:34;17.02;;;5.05;;
789;SDS011;378;48.844;9.156;2023-10-09T09:07:05;14.68;;;5.00;;
789;SDS011;378;48.844;9.156;2023-10-09T09:09:33;14.20;;;4.75;;
789;SDS011;378;48.844;9.156;2023-10-09T09:12:00;14.77;;;5.00;;
789;SDS011;378;48.844;9.156;2023-10-09T09:14:38;22.38;;;5.38;;
789;SDS011;378;48.844;9.156;2023-10-09T09:17:06;22.80;;;5.47;;
789;SDS011;378;48.844;9.156;2023-10-09T09:19:37;23.75;;;5.80;;
789;SDS011;378;48.844;9.156;2023-10-09T09:22:04;30.13;;;7.47;;
789;SDS011;378;48.844;9.156;2023-10-09T09:24:39;27.13;;;6.68;;
789;SDS011;378;48.844;9.156;2023-10-09T09:27:25;29.45;;;6.00;;
789;SDS011;378;48.844;9.156;2023-10-09T09:30:25;25.63;;;6.43;;
789;SDS011;378;48.844;9.156;2023-10-09T09:32:58;29.40;;;7.07;;
789;SDS011;378;48.844;9.156;2023-10-09T09:35:55;17.97;;;6.23;;
789;SDS011;378;48.844;9.156;2023-10-09T09:38:23;18.98;;;5.93;;
789;SDS011;378;48.844;9.156;2023-10-09T09:41:07;17.98;;;5.22;;
789;SDS011;378;48.844;9.156;2023-10-09T09:43:38;18.42;;;5.60;;
789;SDS011;378;48.844;9.156;2023-10-09T09:46:08;16.52;;;5.63;;
789;SDS011;378;48.844;9.156;2023-10-09T09:48:37;18.85;;;5.32;;
789;SDS011;378;48.844;9.156;2023-10-09T09:51:10;33.50;;;6.55;;
789;SDS011;378;48.844;9.156;2023-10-09T09:53:40;20.95;;;5.70;;
789;SDS011;378;48.844;9.156;2023-10-09T09:56:07;18.70;;;5.78;;
789;SDS011;378;48.844;9.156;2023-10-09T09:58:41;21.25;;;4.85;;
789;SDS011;378;48.844;9.156;2023-10-09T10:01:12;19.67;;;5.20;;
789;SDS011;378;48.844;9.156;2023-10-09T10:03:50;14.27;;;4.53;;
789;SDS011;378;48.844;9.156;2023-10-09T10:06:22;16.25;;;4.82;;
789;SDS011;378;48.844;9.156;2023-10-09T10:08:51;16.73;;;4.68;;
789;SDS011;378;48.844;9.156;2023-10-09T10:14:12;16.42;;;4.45;;
789;SDS011;378;48.844;9.156;2023-10-09T10:17:01;16.48;;;4.30;;
789;SDS011;378;48.844;9.156;2023-10-09T10:20:03;17.60;;;4.30;;
789;SDS011;378;48.844;9.156;2023-10-09T10:22:51;17.30;;;5.05;;
789;SDS011;378;48.844;9.156;2023-10-09T10:25:44;15.80;;;5.07;;
789;SDS011;378;48.844;9.156;2023-10-09T10:28:18;15.93;;;4.47;;
789;SDS011;378;48.844;9.156;2023-10-09T10:31:03;16.70;;;4.30;;
789;SDS011;378;48.844;9.156;2023-10-09T10:36:35;15.38;;;3.60;;
789;SDS011;378;48.844;9.156;2023-10-09T10:39:08;12.63;;;3.50;;
789;SDS011;378;48.844;9.156;2023-10-09T10:41:36;25.52;;;3.83;;
789;SDS011;378;48.844;9.156;2023-10-09T10:44:16;17.65;;;3.63;;
789;SDS011;378;48.844;9.156;2023-10-09T10:47:03;18.58;;;3.55;;
789;SDS011;378;48.844;9.156;2023-10-09T10:49:44;14.23;;;3.17;;
789;SDS011;378;48.844;9.156;2023-10-09T10:52:19;20.55;;;3.78;;
789;SDS011;378;48.844;9.156;2023-10-09T10:54:47;21.80;;;3.38;;
789;SDS011;378;48.844;9.156;2023-10-09T10:57:34;19.40;;;3.28;;
789;SDS011;378;48.844;9.156;2023-10-09T11:00:31;18.77;;;3.33;;
789;SDS011;378;48.844;9.156;2023-10-09T11:03:18;12.82;;;3.20;;
789;SDS011;378;48.844;9.156;2023-10-09T11:05:54;22.40;;;3.47;;
789;SDS011;378;48.844;9.156;2023-10-09T11:08:23;20.38;;;3.33;;
789;SDS011;378;48.844;9.156;2023-10-09T11:11:11;14.10;;;3.10;;
789;SDS011;378;48.844;9.156;2023-10-09T11:13:41;18.17;;;3.92;;
789;SDS011;378;48.844;9.156;2023-10-09T11:16:23;17.13;;;3.85;;
789;SDS011;378;48.844;9.156;2023-10-09T11:19:08;14.95;;;3.20;;
789;SDS011;378;48.844;9.156;2023-10-09T11:21:48;17.90;;;4.22;;
789;SDS011;378;48.844;9.156;2023-10-09T11:24:27;15.20;;;3.50;;
789;SDS011;378;48.844;9.156;2023-10-09T11:27:00;10.13;;;3.15;;
789;SDS011;378;48.844;9.156;2023-10-09T11:29:32;14.27;;;3.33;;
789;SDS011;378;48.844;9.156;2023-10-09T11:32:22;19.70;;;3.50;;
789;SDS011;378;48.844;9.156;2023-10-09T11:35:11;12.60;;;3.00;;
789;SDS011;378;48.844;9.156;2023-10-09T11:37:41;12.57;;;3.33;;
789;SDS011;378;48.844;9.156;2023-10-09T11:42:59;11.85;;;2.80;;
789;SDS011;378;48.844;9.156;2023-10-09T11:45:28;10.63;;;3.60;;
789;SDS011;378;48.844;9.156;2023-10-09T11:48:16;7.80;;;2.92;;
789;SDS011;378;48.844;9.156;2023-10-09T11:50:53;11.15;;;3.45;;
789;SDS011;378;48.844;9.156;2023-10-09T11:53:21;16.40;;;3.45;;
789;SDS011;378;48.844;9.156;2023-10-09T11:56:01;11.25;;;3.78;;
789;SDS011;378;48.844;9.156;2023-10-09T11:58:27;15.60;;;3.38;;
789;SDS011;378;48.844;9.156;2023-10-09T12:00:54;10.38;;;3.80;;
789;SDS011;378;48.844;9.156;2023-10-09T12:03:26;15.20;;;3.10;;
789;SDS011;378;48.844;9.156;2023-10-09T12:05:56;14.50;;;3.63;;
789;SDS011;378;48.844;9.156;2023-10-09T12:08:23;12.88;;;3.83;;
789;SDS011;378;48.844;9.156;2023-10-09T12:10:54;17.85;;;3.75;;
789;SDS011;378;48.844;9.156;2023-10-09T12:13:21;13.95;;;4.28;;
789;SDS011;378;48.844;9.156;2023-10-09T12:15:49;11.55;;;3.75;;
789;SDS011;378;48.844;9.156;2023-10-09T12:18:19;13.40;;;4.15;;
789;SDS011;378;48.844;9.156;2023-10-09T12:20:48;15.82;;;3.72;;
789;SDS011;378;48.844;9.156;2023-10-09T12:23:22;13.20;;;3.80;;
789;SDS011;378;48.844;9.156;2023-10-09T12:25:53;11.32;;;3.90;;
789;SDS011;378;48.844;9.156;2023-10-09T12:28:21;13.10;;;4.03;;
789;SDS011;378;48.844;9.156;2023-10-09T12:30:49;13.68;;;3.80;;
789;SDS011;378;48.844;9.156;2023-10-09T12:33:16;12.00;;;3.40;;
789;SDS011;378;48.844;9.156;2023-10-09T12:35:44;11.52;;;4.18;;
789;SDS011;378;48.844;9.156;2023-10-09T12:38:14;14.80;;;4.22;;
789;SDS011;378;48.844;9.156;2023-10-09T12:40:47;11.98;;;4.20;;
789;SDS011;378;48.844;9.156;2023-10-09T12:43:18;12.18;;;4.13;;
789;SDS011;378;48.844;9.156;2023-10-09T12:45:47;11.30;;;3.88;;
789;SDS011;378;48.844;9.156;2023-10-09T12:48:14;14.20;;;3.95;;
789;SDS011;378;48.844;9.156;2023-10-09T12:50:40;13.40;;;4.38;;
789;SDS011;378;48.844;9.156;2023-10-09T12:53:09;16.25;;;4.63;;
789;SDS011;378;48.844;9.156;2023-10-09T12:55:39;11.43;;;3.97;;
789;SDS011;378;48.844;9.156;2023-10-09T12:58:07;15.38;;;3.67;;
789;SDS011;378;48.844;9.156;2023-10-09T13:00:39;18.85;;;4.57;;
789;SDS011;378;48.844;9.156;2023-10-09T13:03:13;15.77;;;4.25;;
789;SDS011;378;48.844;9.156;2023-10-09T13:05:44;13.23;;;4.28;;
789;SDS011;378;48.844;9.156;2023-10-09T13:08:19;9.77;;;4.00;;
789;SDS011;378;48.844;9.156;2023-10-09T13:10:49;13.85;;;3.63;;
789;SDS011;378;48.844;9.156;2023-10-09T13:13:27;7.13;;;2.90;;
789;SDS011;378;48.844;9.156;2023-10-09T13:16:05;13.55;;;3.60;;
789;SDS011;378;48.844;9.156;2023-10-09T13:18:33;14.52;;;4.07;;
789;SDS011;378;48.844;9.156;2023-10-09T13:21:00;15.18;;;4.97;;
789;SDS011;378;48.844;9.156;2023-10-09T13:23:29;16.65;;;5.20;;
789;SDS011;378;48.844;9.156;2023-10-09T13:26:05;11.80;;;4.70;;
789;SDS011;378;48.844;9.156;2023-10-09T13:28:44;16.05;;;5.28;;
789;SDS011;378;48.844;9.156;2023-10-09T13:31:12;14.00;;;5.85;;
789;SDS011;378;48.844;9.156;2023-10-09T13:33:40;15.52;;;5.28;;
789;SDS011;378;48.844;9.156;2023-10-09T13:36:08;21.88;;;6.32;;
789;SDS011;378;48.844;9.156;2023-10-09T13:38:42;19.30;;;6.57;;
789;SDS011;378;48.844;9.156;2023-10-09T13:41:11;19.50;;;6.25;;
789;SDS011;378;48.844;9.156;2023-10-09T13:43:39;21.25;;;6.70;;
789;SDS011;378;48.844;9.156;2023-10-09T13:46:08;16.95;;;6.30;;
789;SDS011;378;48.844;9.156;2023-10-09T13:48:36;16.40;;;6.05;;
789;SDS011;378;48.844;9.156;2023-10-09T13:51:06;16.05;;;5.97;;
789;SDS011;378;48.844;9.156;2023-10-09T13:53:38;17.17;;;6.13;;
789;SDS011;378;48.844;9.156;2023-10-09T13:56:13;22.80;;;6.57;;
789;SDS011;378;48.844;9.156;2023-10-09T13:58:43;15.73;;;5.97;;
789;SDS011;378;48.844;9.156;2023-10-09T14:01:11;13.35;;;5.85;;
789;SDS011;378;48.844;9.156;2023-10-09T14:03:45;15.63;;;6.38;;
789;SDS011;378;48.844;9.156;2023-10-09T14:06:15;17.50;;;6.38;;
789;SDS011;378;48.844;9.156;2023-10-09T14:08:45;18.85;;;5.95;;
789;SDS011;378;48.844;9.156;2023-10-09T14:11:13;17.63;;;6.18;;
789;SDS011;378;48.844;9.156;2023-10-09T14:13:40;17.40;;;6.13;;
789;SDS011;378;48.844;9.156;2023-10-09T14:16:07;19.67;;;6.57;;
789;SDS011;378;48.844;9.156;2023-10-09T14:18:48;19.02;;;6.55;;
789;SDS011;378;48.844;9.156;2023-10-09T14:21:18;20.02;;;6.57;;
789;SDS011;378;48.844;9.156;2023-10-09T14:23:46;16.88;;;6.53;;
789;SDS011;378;48.844;9.156;2023-10-09T14:26:15;14.55;;;5.60;;
789;SDS011;378;48.844;9.156;2023-10-09T14:28:43;17.67;;;6.05;;
789;SDS011;378;48.844;9.156;2023-10-09T14:31:10;18.90;;;5.97;;
789;SDS011;378;48.844;9.156;2023-10-09T14:33:39;17.92;;;6.40;;
789;SDS011;378;48.844;9.156;2023-10-09T14:36:11;16.75;;;6.22;;
789;SDS011;378;48.844;9.156;2023-10-09T14:38:39;17.00;;;6.70;;
789;SDS011;378;48.844;9.156;2023-10-09T14:41:07;17.75;;;6.18;;
789;SDS011;378;48.844;9.156;2023-10-09T14:43:38;14.60;;;5.70;;
789;SDS011;378;48.844;9.156;2023-10-09T14:46:05;14.23;;;5.95;;
789;SDS011;378;48.844;9.156;2023-10-09T14:48:36;17.38;;;6.40;;
789;SDS011;378;48.844;9.156;2023-10-09T14:51:03;18.27;;;6.45;;
789;SDS011;378;48.844;9.156;2023-10-09T14:53:31;16.05;;;5.90;;
789;SDS011;378;48.844;9.156;2023-10-09T14:55:59;16.40;;;6.43;;
789;SDS011;378;48.844;9.156;2023-10-09T14:58:28;15.60;;;6.47;;
789;SDS011;378;48.844;9.156;2023-10-09T15:01:06;13.15;;;6.05;;
789;SDS011;378;48.844;9.156;2023-10-09T15:03:35;14.00;;;5.68;;
789;SDS011;378;48.844;9.156;2023-10-09T15:06:03;15.63;;;5.95;;
789;SDS011;378;48.844;9.156;2023-10-09T15:08:33;15.68;;;5.72;;
789;SDS011;378;48.844;9.156;2023-10-09T15:11:00;12.77;;;5.15;;
789;SDS011;378;48.844;9.156;2023-10-09T15:13:27;14.35;;;6.03;;
789;SDS011;378;48.844;9.156;2023-10-09T15:15:55;12.98;;;5.30;;
789;SDS011;378;48.844;9.156;2023-10-09T15:18:25;13.52;;;5.43;;
789;SDS011;378;48.844;9.156;2023-10-09T15:20:54;12.98;;;5.80;;
789;SDS011;378;48.844;9.156;2023-10-09T15:23:20;13.10;;;5.00;;
789;SDS011;378;48.844;9.156;2023-10-09T15:25:47;11.98;;;5.53;;
789;SDS011;378;48.844;9.156;2023-10-09T15:28:17;12.60;;;4.82;;
789;SDS011;378;48.844;9.156;2023-10-09T15:30:44;14.07;;;5.57;;
789;SDS011;378;48.844;9.156;2023-10-09T15:33:13;12.20;;;5.28;;
789;SDS011;378;48.844;9.156;2023-10-09T15:35:43;11.68;;;4.95;;
789;SDS011;378;48.844;9.156;2023-10-09T15:38:11;8.93;;;4.50;;
789;SDS011;378;48.844;9.156;2023-10-09T15:40:39;17.10;;;5.65;;
789;SDS011;378;48.844;9.156;2023-10-09T15:43:11;13.43;;;5.40;;
789;SDS011;378;48.844;9.156;2023-10-09T15:45:43;15.82;;;5.97;;
789;SDS011;378;48.844;9.156;2023-10-09T15:48:13;14.77;;;5.47;;
789;SDS011;378;48.844;9.156;2023-10-09T15:50:44;19.23;;;6.50;;
789;SDS011;378;48.844;9.156;2023-10-09T15:53:15;20.10;;;7.25;;
789;SDS011;378;48.844;9.156;2023-10-09T15:55:43;17.85;;;6.28;;
789;SDS011;378;48.844;9.156;2023-10-09T15:58:10;19.05;;;6.32;;
789;SDS011;378;48.844;9.156;2023-10-09T16:00:37;15.38;;;5.43;;
789;SDS011;378;48.844;9.156;2023-10-09T16:03:04;14.07;;;4.95;;
789;SDS011;378;48.844;9.156;2023-10-09T16:05:35;14.98;;;5.90;;
789;SDS011;378;48.844;9.156;2023-10-09T16:08:03;13.77;;;5.55;;
789;SDS011;378;48.844;9.156;2023-10-09T16:10:30;16.90;;;6.65;;
789;SDS011;378;48.844;9.156;2023-10-09T16:12:59;19.27;;;6.15;;
789;SDS011;378;48.844;9.156;2023-10-09T16:15:26;20.42;;;6.32;;
789;SDS011;378;48.844;9.156;2023-10-09T16:17:54;17.60;;;5.35;;
789;SDS011;378;48.844;9.156;2023-10-09T16:20:28;16.00;;;5.60;;
789;SDS011;378;48.844;9.156;2023-10-09T16:22:56;17.58;;;6.15;;
789;SDS011;378;48.844;9.156;2023-10-09T16:25:25;17.30;;;5.25;;
789;SDS011;378;48.844;9.156;2023-10-09T16:27:53;13.48;;;5.22;;
789;SDS011;378;48.844;9.156;2023-10-09T16:30:21;16.63;;;5.25;;
789;SDS011;378;48.844;9.156;2023-10-09T16:32:48;12.02;;;4.45;;
789;SDS011;378;48.844;9.156;2023-10-09T16:35:15;9.63;;;4.68;;
789;SDS011;378;48.844;9.156;2023-10-09T16:37:42;16.52;;;5.32;;
789;SDS011;378;48.844;9.156;2023-10-09T16:40:10;10.52;;;4.07;;
789;SDS011;378;48.844;9.156;2023-10-09T16:42:41;14.13;;;5.05;;
789;SDS011;378;48.844;9.156;2023-10-09T16:45:08;13.30;;;4.80;;
789;SDS011;378;48.844;9.156;2023-10-09T16:47:40;15.57;;;4.90;;